createdAt,value
2022-10-24T00:00:51.084Z,101127.06
2022-10-24T00:03:54.464Z,101135.63
2022-10-24T00:06:57.294Z,101142.19
2022-10-24T00:10:00.038Z,101127.47
2022-10-24T00:13:03.362Z,101126.06
2022-10-24T00:16:06.538Z,101129.94
2022-10-24T00:19:09.501Z,101125.25
2022-10-24T00:22:12.282Z,101132.56
2022-10-24T00:25:15.103Z,101132.97
2022-10-24T00:28:18.654Z,101130.50
2022-10-24T00:31:22.068Z,101122.94
2022-10-24T00:34:24.807Z,101121.75
2022-10-24T00:37:27.581Z,101120.09
2022-10-24T00:40:30.353Z,101125.19
2022-10-24T00:43:33.189Z,101118.22
2022-10-24T00:46:35.924Z,101119.44
2022-10-24T00:50:00.957Z,101117.59
2022-10-24T00:53:03.780Z,101100.19
2022-10-24T00:56:08.131Z,101101.00
2022-10-24T00:59:12.870Z,101098.78
2022-10-24T01:02:15.738Z,101096.72
2022-10-24T01:05:20.522Z,101087.56
2022-10-24T01:08:41.452Z,101101.66
2022-10-24T01:12:22.444Z,101101.25
2022-10-24T01:15:47.966Z,101101.91
2022-10-24T01:19:03.183Z,101102.09
2022-10-24T01:22:18.071Z,101095.97
2022-10-24T01:25:53.735Z,101099.63
2022-10-24T01:29:01.888Z,101090.63
2022-10-24T01:32:16.651Z,101088.38
2022-10-24T01:35:25.926Z,101086.91
2022-10-24T01:38:39.347Z,101078.53
2022-10-24T01:41:43.788Z,101077.09
2022-10-24T01:44:50.777Z,101084.25
2022-10-24T01:47:56.888Z,101091.38
2022-10-24T01:51:02.747Z,101083.41
2022-10-24T01:54:05.770Z,101081.75
2022-10-24T01:57:08.674Z,101076.44
2022-10-24T02:00:18.281Z,101079.69
2022-10-24T02:03:43.965Z,101072.13
2022-10-24T02:06:48.809Z,101078.25
2022-10-24T02:09:57.430Z,101076.22
2022-10-24T02:13:04.110Z,101075.81
2022-10-24T02:16:07.186Z,101077.63
2022-10-24T02:19:10.546Z,101070.66
2022-10-24T02:22:22.446Z,101069.88
2022-10-24T02:25:31.509Z,101068.41
2022-10-24T02:28:41.154Z,101062.50
2022-10-24T02:31:50.517Z,101062.09
2022-10-24T02:34:54.458Z,101060.50
2022-10-24T02:38:13.122Z,101067.25
2022-10-24T02:41:22.473Z,101056.06
2022-10-24T02:44:29.001Z,101062.63
2022-10-24T02:47:32.767Z,101051.81
2022-10-24T02:50:37.673Z,101052.41
2022-10-24T02:53:40.943Z,101046.69
2022-10-24T02:56:52.403Z,101051.41
2022-10-24T02:59:55.226Z,101044.88
2022-10-24T03:02:58.354Z,101059.97
2022-10-24T03:06:01.202Z,101050.38
2022-10-24T03:09:04.064Z,101050.38
2022-10-24T03:12:07.323Z,101035.44
2022-10-24T03:15:10.516Z,101029.34
2022-10-24T03:18:13.333Z,101035.84
2022-10-24T03:21:16.516Z,101034.00
2022-10-24T03:24:26.892Z,101033.19
2022-10-24T03:27:40.058Z,101036.06
2022-10-24T03:30:42.798Z,101032.84
2022-10-24T03:33:45.545Z,101034.06
2022-10-24T03:36:48.399Z,101035.91
2022-10-24T03:39:51.447Z,101033.06
2022-10-24T03:42:54.144Z,101029.19
2022-10-24T03:45:56.841Z,101029.19
2022-10-24T03:48:59.569Z,101034.91
2022-10-24T03:52:02.413Z,101021.03
2022-10-24T03:55:05.545Z,101021.44
2022-10-24T03:58:08.414Z,101026.34
2022-10-24T04:01:17.349Z,101025.50
2022-10-24T04:04:20.211Z,101029.94
2022-10-24T04:07:23.539Z,101033.22
2022-10-24T04:10:26.426Z,101028.53
2022-10-24T04:13:29.355Z,101036.72
2022-10-24T04:16:34.992Z,101039.16
2022-10-24T04:19:37.789Z,101025.47
2022-10-24T04:22:40.499Z,101037.13
2022-10-24T04:25:43.726Z,101034.81
2022-10-24T04:28:49.737Z,101034.59
2022-10-24T04:31:52.590Z,101035.63
2022-10-24T04:34:55.250Z,101034.00
2022-10-24T04:37:57.956Z,101036.25
2022-10-24T04:41:00.773Z,101039.28
2022-10-24T04:44:03.777Z,101038.47
2022-10-24T04:47:06.529Z,101032.56
2022-10-24T04:50:09.849Z,101043.59
2022-10-24T04:53:12.914Z,101038.69
2022-10-24T04:56:19.871Z,101037.25
2022-10-24T04:59:22.626Z,101034.38
2022-10-24T05:02:25.416Z,101028.25
2022-10-24T05:05:28.801Z,101027.63
2022-10-24T05:08:37.949Z,101030.09
2022-10-24T05:11:41.790Z,101024.78
2022-10-24T05:14:47.230Z,101038.03
2022-10-24T05:17:49.992Z,101041.88
2022-10-24T05:20:57.009Z,101042.47
2022-10-24T05:24:00.406Z,101038.78
2022-10-24T05:27:03.359Z,101053.28
2022-10-24T05:30:06.955Z,101049.25
2022-10-24T05:33:09.862Z,101053.97
2022-10-24T05:36:12.664Z,101050.69
2022-10-24T05:39:16.006Z,101051.16
2022-10-24T05:42:18.858Z,101043.19
2022-10-24T05:45:22.003Z,101049.97
2022-10-24T05:48:25.073Z,101059.38
2022-10-24T05:51:28.002Z,101055.13
2022-10-24T05:54:37.825Z,101065.16
2022-10-24T05:57:51.613Z,101073.38
2022-10-24T06:00:54.496Z,101063.78
2022-10-24T06:03:57.773Z,101064.41
2022-10-24T06:07:00.781Z,101076.91
2022-10-24T06:10:05.771Z,101083.44
2022-10-24T06:13:08.845Z,101108.63
2022-10-24T06:16:12.716Z,101104.72
2022-10-24T06:19:15.629Z,101106.38
2022-10-24T06:22:19.718Z,101106.78
2022-10-24T06:25:22.857Z,101105.94
2022-10-24T06:28:26.366Z,101110.38
2022-10-24T06:31:31.578Z,101103.22
2022-10-24T06:34:35.816Z,101104.16
2022-10-24T06:37:38.590Z,101107.53
2022-10-24T06:40:42.854Z,101101.94
2022-10-24T06:43:48.862Z,101104.38
2022-10-24T06:46:51.678Z,101100.66
2022-10-24T06:49:54.539Z,101096.22
2022-10-24T06:52:57.284Z,101099.34
2022-10-24T06:56:01.783Z,101105.00
2022-10-24T06:59:12.925Z,101101.66
2022-10-24T07:02:18.964Z,101109.34
2022-10-24T07:05:23.084Z,101106.63
2022-10-24T07:08:29.365Z,101108.69
2022-10-24T07:11:34.933Z,101106.63
2022-10-24T07:14:40.176Z,101109.88
2022-10-24T07:17:45.229Z,101094.97
2022-10-24T07:20:48.361Z,101085.81
2022-10-24T07:23:52.921Z,101074.72
2022-10-24T07:26:55.825Z,101091.16
2022-10-24T07:33:17.480Z,101089.63
2022-10-24T07:36:22.843Z,101094.22
2022-10-24T07:39:25.621Z,101093.41
2022-10-24T07:42:29.828Z,101099.09
2022-10-24T07:45:57.515Z,101088.72
2022-10-24T07:49:00.294Z,101103.78
2022-10-24T07:52:03.054Z,101097.56
2022-10-24T07:55:06.326Z,101093.19
2022-10-24T07:58:10.179Z,101092.88
2022-10-24T08:01:23.082Z,101091.22
2022-10-24T08:04:26.641Z,101095.81
2022-10-24T08:07:31.094Z,101097.28
2022-10-24T08:10:35.923Z,101100.28
2022-10-24T08:13:42.654Z,101096.31
2022-10-24T08:16:45.380Z,101083.44
2022-10-24T08:19:50.729Z,101087.09
2022-10-24T08:22:53.794Z,101076.88
2022-10-24T08:25:59.103Z,101080.44
2022-10-24T08:29:02.350Z,101072.03
2022-10-24T08:32:06.912Z,101079.22
2022-10-24T08:35:10.431Z,101081.22
2022-10-24T08:38:13.179Z,101066.78
2022-10-24T08:41:46.933Z,101071.44
2022-10-24T08:44:50.022Z,101070.06
2022-10-24T08:48:04.381Z,101064.16
2022-10-24T08:51:34.916Z,101054.59
2022-10-24T08:54:41.837Z,101051.84
2022-10-24T08:57:56.324Z,101044.66
2022-10-24T09:01:03.170Z,101048.03
2022-10-24T09:04:10.648Z,101051.34
2022-10-24T09:07:19.382Z,101066.59
2022-10-24T09:11:00.370Z,101069.06
2022-10-24T09:14:12.703Z,101052.19
2022-10-24T09:17:21.529Z,101046.06
2022-10-24T09:20:30.843Z,101048.28
2022-10-24T09:23:37.266Z,101048.38
2022-10-24T09:26:47.097Z,101051.72
2022-10-24T09:29:50.306Z,101042.00
2022-10-24T09:32:55.876Z,101050.00
2022-10-24T09:36:03.770Z,101040.97
2022-10-24T09:39:40.691Z,101047.00
2022-10-24T09:43:04.750Z,101036.19
2022-10-24T09:46:07.465Z,101036.34
2022-10-24T09:49:14.262Z,101041.03
2022-10-24T09:52:27.801Z,101036.69
2022-10-24T09:55:32.321Z,101037.13
2022-10-24T09:58:35.815Z,101029.88
2022-10-24T10:01:39.044Z,101031.69
2022-10-24T10:04:43.719Z,101028.31
2022-10-24T10:07:52.237Z,101035.69
2022-10-24T10:11:28.003Z,101026.88
2022-10-24T10:14:32.856Z,101011.34
2022-10-24T10:17:50.371Z,101025.50
2022-10-24T10:21:17.597Z,101018.53
2022-10-24T10:28:33.948Z,101010.91
2022-10-24T10:31:44.125Z,101011.38
2022-10-24T10:49:49.104Z,100995.44
2022-10-24T10:53:15.789Z,100992.13
2022-10-24T10:56:48.790Z,100999.00
2022-10-24T11:00:09.647Z,100986.22
2022-10-24T11:03:40.478Z,100983.06
2022-10-24T11:07:18.810Z,100985.56
2022-10-24T11:10:28.758Z,100977.91
2022-10-24T11:13:41.149Z,100981.06
2022-10-24T11:16:46.830Z,100980.59
2022-10-24T11:20:05.966Z,100974.00
2022-10-24T11:24:00.022Z,100976.75
2022-10-24T11:27:24.518Z,100966.09
2022-10-24T11:30:59.872Z,100975.53
2022-10-24T11:34:11.694Z,100965.41
2022-10-24T11:37:20.614Z,100968.03
2022-10-24T11:48:43.289Z,100962.88
2022-10-24T11:51:57.763Z,100952.69
2022-10-24T11:55:12.169Z,100943.63
2022-10-24T11:58:20.172Z,100952.78
2022-10-24T12:02:03.669Z,100942.81
2022-10-24T12:05:21.571Z,100942.84
2022-10-24T12:08:42.326Z,100934.63
2022-10-24T12:12:16.016Z,100931.44
2022-10-24T12:15:32.286Z,100925.72
2022-10-24T12:18:41.324Z,100930.50
2022-10-24T12:21:52.102Z,100920.94
2022-10-24T12:25:20.827Z,100922.09
2022-10-24T12:28:26.120Z,100917.25
2022-10-24T12:31:32.933Z,100909.66
2022-10-24T12:34:49.169Z,100905.56
2022-10-24T12:37:53.511Z,100890.59
2022-10-24T12:41:09.653Z,100893.28
2022-10-24T12:44:34.118Z,100887.50
2022-10-24T12:47:46.093Z,100890.56
2022-10-24T12:50:58.828Z,100880.28
2022-10-24T12:54:13.720Z,100880.13
2022-10-24T12:57:23.452Z,100869.31
2022-10-24T13:00:33.784Z,100866.66
2022-10-24T13:03:59.851Z,100870.44
2022-10-24T13:07:27.707Z,100874.84
2022-10-24T13:10:39.612Z,100867.88
2022-10-24T13:13:54.100Z,100869.03
2022-10-24T13:17:36.040Z,100860.91
2022-10-24T13:20:46.435Z,100857.06
2022-10-24T13:23:51.036Z,100865.31
2022-10-24T13:26:55.976Z,100862.63
2022-10-24T13:30:02.179Z,100865.72
2022-10-24T13:33:32.887Z,100854.22
2022-10-24T13:36:36.239Z,100846.09
2022-10-24T13:39:51.074Z,100847.69
2022-10-24T13:43:19.590Z,100853.44
2022-10-24T13:46:54.445Z,100850.88
2022-10-24T13:50:20.634Z,100846.47
2022-10-24T13:53:30.875Z,100840.56
2022-10-24T13:56:38.537Z,100838.00
2022-10-24T13:59:41.550Z,100832.69
2022-10-24T14:02:45.530Z,100835.88
2022-10-24T14:05:56.530Z,100833.19
2022-10-24T14:09:09.354Z,100840.50
2022-10-24T14:12:25.719Z,100834.56
2022-10-24T14:15:32.339Z,100832.53
2022-10-24T14:18:37.195Z,100828.88
2022-10-24T14:21:42.898Z,100840.00
2022-10-24T14:24:48.086Z,100828.78
2022-10-24T14:27:53.503Z,100829.84
2022-10-24T14:30:59.041Z,100820.19
2022-10-24T14:34:06.181Z,100821.59
2022-10-24T14:37:16.552Z,100811.41
2022-10-24T14:40:19.480Z,100817.19
2022-10-24T14:43:27.186Z,100812.00
2022-10-24T14:46:37.586Z,100812.31
2022-10-24T14:49:40.321Z,100810.38
2022-10-24T14:52:45.943Z,100795.34
2022-10-24T14:55:55.206Z,100800.91
2022-10-24T14:59:00.034Z,100807.13
2022-10-24T15:02:11.735Z,100804.38
2022-10-24T15:05:20.778Z,100810.31
2022-10-24T15:08:35.137Z,100802.97
2022-10-24T15:11:46.623Z,100799.47
2022-10-24T15:14:51.835Z,100804.44
2022-10-24T15:18:19.892Z,100811.03
2022-10-24T15:21:26.628Z,100810.56
2022-10-24T15:24:29.511Z,100803.84
2022-10-24T15:27:41.275Z,100802.53
2022-10-24T15:30:44.168Z,100806.28
2022-10-24T15:33:48.268Z,100806.06
2022-10-24T15:36:52.776Z,100804.47
2022-10-24T15:39:56.255Z,100799.91
2022-10-24T15:42:59.411Z,100801.25
2022-10-24T15:46:02.317Z,100795.59
2022-10-24T15:49:05.253Z,100796.63
2022-10-24T15:52:13.111Z,100801.97
2022-10-24T15:55:25.218Z,100806.53
2022-10-24T15:58:29.115Z,100805.41
2022-10-24T16:01:40.717Z,100809.38
2022-10-24T16:04:44.646Z,100815.84
2022-10-24T16:07:48.488Z,100810.59
2022-10-24T16:10:53.045Z,100815.34
2022-10-24T16:13:56.270Z,100813.66
2022-10-24T16:17:02.384Z,100823.50
2022-10-24T16:20:05.781Z,100826.13
2022-10-24T16:23:10.930Z,100824.25
2022-10-24T16:26:14.075Z,100828.19
2022-10-24T16:29:17.012Z,100827.31
2022-10-24T16:35:30.374Z,100841.31
2022-10-24T16:38:35.509Z,100839.91
2022-10-24T16:41:38.416Z,100833.06
2022-10-24T16:44:41.281Z,100824.25
2022-10-24T16:47:44.319Z,100826.94
2022-10-24T16:50:47.131Z,100835.97
2022-10-24T16:53:50.203Z,100839.59
2022-10-24T16:56:54.155Z,100839.19
2022-10-24T16:59:57.245Z,100838.16
2022-10-24T17:03:00.237Z,100839.63
2022-10-24T17:06:04.036Z,100834.56
2022-10-24T17:09:06.815Z,100829.19
2022-10-24T17:12:09.622Z,100827.72
2022-10-24T17:15:13.611Z,100826.06
2022-10-24T17:18:20.109Z,100825.97
2022-10-24T17:21:27.731Z,100829.75
2022-10-24T17:24:31.076Z,100833.59
2022-10-24T17:27:34.218Z,100831.16
2022-10-24T17:30:37.357Z,100834.75
2022-10-24T17:33:40.872Z,100840.19
2022-10-24T17:36:50.195Z,100840.19
2022-10-24T17:40:05.487Z,100841.56
2022-10-24T17:43:21.524Z,100836.34
2022-10-24T17:46:25.093Z,100836.91
2022-10-24T17:49:27.834Z,100822.97
2022-10-24T17:52:30.882Z,100839.75
2022-10-24T17:55:45.665Z,100828.97
2022-10-24T17:58:51.380Z,100841.06
2022-10-24T18:01:54.687Z,100838.28
2022-10-24T18:04:57.734Z,100830.97
2022-10-24T18:08:00.709Z,100840.78
2022-10-24T18:11:09.013Z,100835.13
2022-10-24T18:14:38.643Z,100823.16
2022-10-24T18:17:42.957Z,100825.88
2022-10-24T18:20:46.879Z,100823.91
2022-10-24T18:23:50.654Z,100824.84
2022-10-24T18:26:53.635Z,100820.00
2022-10-24T18:29:56.585Z,100823.72
2022-10-24T18:32:59.730Z,100825.34
2022-10-24T18:36:14.025Z,100825.78
2022-10-24T18:39:17.436Z,100829.97
2022-10-24T18:42:29.953Z,100833.13
2022-10-24T18:45:33.342Z,100824.63
2022-10-24T18:48:36.755Z,100826.41
2022-10-24T18:51:54.246Z,100823.13
2022-10-24T18:55:18.667Z,100822.78
2022-10-24T18:58:21.823Z,100813.38
2022-10-24T19:01:43.002Z,100813.59
2022-10-24T19:04:52.673Z,100805.38
2022-10-24T19:07:57.257Z,100805.34
2022-10-24T19:11:00.405Z,100810.22
2022-10-24T19:14:05.122Z,100811.84
2022-10-24T19:17:14.515Z,100811.72
2022-10-24T19:20:23.528Z,100809.84
2022-10-24T19:23:27.521Z,100809.28
2022-10-24T19:26:30.281Z,100813.31
2022-10-24T19:29:33.319Z,100812.06
2022-10-24T19:32:36.311Z,100811.44
2022-10-24T19:35:46.911Z,100813.97
2022-10-24T19:38:55.241Z,100816.50
2022-10-24T19:41:58.418Z,100803.63
2022-10-24T19:45:01.901Z,100799.09
2022-10-24T19:48:05.995Z,100798.50
2022-10-24T19:51:11.763Z,100798.94
2022-10-24T19:54:14.776Z,100796.28
2022-10-24T19:57:17.916Z,100790.84
2022-10-24T20:00:22.016Z,100794.69
2022-10-24T20:03:25.160Z,100806.75
2022-10-24T20:06:28.317Z,100830.38
2022-10-24T20:09:31.182Z,100835.78
2022-10-24T20:12:34.115Z,100836.59
2022-10-24T20:15:36.896Z,100840.09
2022-10-24T20:21:44.117Z,100835.56
2022-10-24T20:24:47.016Z,100828.69
2022-10-24T20:27:50.038Z,100833.00
2022-10-24T20:30:53.877Z,100835.28
2022-10-24T20:34:06.867Z,100837.28
2022-10-24T20:37:11.246Z,100834.03
2022-10-24T20:40:15.202Z,100839.56
2022-10-24T20:43:18.184Z,100831.09
2022-10-24T20:46:21.727Z,100829.28
2022-10-24T20:49:25.118Z,100828.06
2022-10-24T20:52:27.829Z,100832.97
2022-10-24T20:55:43.435Z,100824.25
2022-10-24T20:58:47.169Z,100826.19
2022-10-24T21:01:50.128Z,100832.03
2022-10-24T21:04:52.920Z,100831.88
2022-10-24T21:07:56.250Z,100837.50
2022-10-24T21:10:59.329Z,100831.22
2022-10-24T21:14:05.581Z,100841.66
2022-10-24T21:17:08.681Z,100830.41
2022-10-24T21:20:11.496Z,100831.06
2022-10-24T21:23:14.227Z,100830.69
2022-10-24T21:26:17.291Z,100834.19
2022-10-24T21:29:32.140Z,100845.69
2022-10-24T21:32:36.270Z,100848.88
2022-10-24T21:35:39.659Z,100854.09
2022-10-24T21:38:46.029Z,100850.81
2022-10-24T21:41:48.830Z,100840.31
2022-10-24T21:44:51.666Z,100826.34
2022-10-24T21:47:54.499Z,100825.16
2022-10-24T21:51:11.030Z,100826.47
2022-10-24T21:54:22.837Z,100836.78
2022-10-24T21:57:25.557Z,100835.81
2022-10-24T22:00:28.313Z,100828.91
2022-10-24T22:03:31.005Z,100819.56
2022-10-24T22:06:35.544Z,100811.38
2022-10-24T22:09:38.302Z,100827.16
2022-10-24T22:12:41.064Z,100824.75
2022-10-24T22:18:47.169Z,100843.69
2022-10-24T22:21:51.161Z,100866.72
2022-10-24T22:24:53.941Z,100902.16
2022-10-24T22:27:56.867Z,100910.53
2022-10-24T22:30:59.927Z,100908.44
2022-10-24T22:34:03.138Z,100907.44
2022-10-24T22:37:32.779Z,100905.16
2022-10-24T22:40:35.827Z,100894.63
2022-10-24T22:43:38.961Z,100888.72
2022-10-24T22:47:25.811Z,100893.28
2022-10-24T22:50:43.899Z,100899.22
2022-10-24T22:53:46.811Z,100891.06
2022-10-24T22:56:49.985Z,100906.00
2022-10-24T22:59:52.958Z,100906.38
2022-10-24T23:03:08.578Z,100906.78
2022-10-24T23:06:23.000Z,100906.34
2022-10-24T23:09:25.857Z,100907.56
2022-10-24T23:12:28.990Z,100908.13
2022-10-24T23:15:32.471Z,100914.34
2022-10-24T23:18:35.699Z,100911.69
2022-10-24T23:21:45.610Z,100913.38
2022-10-24T23:24:49.910Z,100902.56
2022-10-24T23:28:07.649Z,100906.41
2022-10-24T23:31:10.651Z,100914.78
2022-10-24T23:34:13.989Z,100906.38
2022-10-24T23:37:34.134Z,100907.88
2022-10-24T23:40:37.723Z,100903.97
2022-10-24T23:43:40.690Z,100911.56
2022-10-24T23:46:52.921Z,100915.31
2022-10-24T23:50:06.848Z,100916.56
2022-10-24T23:53:33.852Z,100925.97
2022-10-24T23:56:37.102Z,100916.22
2022-10-24T23:59:39.792Z,100922.94
